Time;durP1;ratioP1;P1;durP2;ratioP2;P2;SDS_P1;SDS_P2;PMS_P1;PMS_P2;Temp;Humidity;BMP_temperature;BMP_pressure;BME280_temperature;BME280_humidity;BME280_pressure;Samples;Min_cycle;Max_cycle;Signal;HPM_P1;HPM_P2
2021/03/31 00:00:49;;;;;;;9.75;3.55;;;10.50;87.40;;;;;;5015859;28;20021;-89
2021/03/31 00:03:19;;;;;;;7.90;3.35;;;10.60;87.00;;;;;;5015824;28;20018;-88
2021/03/31 00:05:45;;;;;;;13.68;4.18;;;10.60;86.80;;;;;;5016655;28;20030;-88
2021/03/31 00:08:11;;;;;;;7.47;3.58;;;10.50;87.00;;;;;;5015678;28;20112;-88
2021/03/31 00:10:44;;;;;;;7.32;3.33;;;10.50;88.00;;;;;;5015622;28;20124;-88
2021/03/31 00:13:10;;;;;;;6.63;3.42;;;10.50;86.90;;;;;;5015758;28;20033;-88
2021/03/31 00:15:36;;;;;;;6.80;3.40;;;10.50;88.20;;;;;;5017607;28;20092;-89
2021/03/31 00:18:05;;;;;;;10.20;3.40;;;10.40;88.40;;;;;;5019396;28;20120;-88
2021/03/31 00:20:31;;;;;;;5.97;3.10;;;10.30;88.30;;;;;;5019579;28;20025;-88
2021/03/31 00:22:56;;;;;;;6.88;3.53;;;10.40;88.90;;;;;;5019449;28;20428;-88
2021/03/31 00:25:22;;;;;;;8.25;3.35;;;10.50;88.20;;;;;;5019325;28;20038;-88
2021/03/31 00:27:48;;;;;;;8.13;3.47;;;10.50;88.10;;;;;;5037295;28;20030;-88
2021/03/31 00:30:17;;;;;;;8.45;3.60;;;10.30;88.60;;;;;;5019270;28;20499;-88
2021/03/31 00:32:42;;;;;;;8.13;3.72;;;10.20;88.30;;;;;;5019199;28;20025;-88
2021/03/31 00:35:09;;;;;;;10.30;3.63;;;10.20;88.90;;;;;;5019114;28;20098;-88
2021/03/31 00:37:35;;;;;;;7.95;3.88;;;10.00;89.00;;;;;;5019090;28;20025;-88
2021/03/31 00:40:03;;;;;;;7.57;3.70;;;10.00;89.60;;;;;;5036985;28;20104;-87
2021/03/31 00:42:29;;;;;;;9.50;3.85;;;10.00;90.30;;;;;;5036833;28;20022;-88
2021/03/31 00:44:54;;;;;;;7.18;3.30;;;10.30;90.10;;;;;;5019064;28;20025;-88
2021/03/31 00:47:20;;;;;;;9.15;4.35;;;10.20;89.90;;;;;;5019055;28;20029;-88
2021/03/31 00:49:46;;;;;;;7.57;3.40;;;10.40;89.60;;;;;;5019101;28;20030;-88
2021/03/31 00:52:12;;;;;;;12.02;3.95;;;10.40;89.60;;;;;;5018867;28;20036;-88
2021/03/31 00:54:38;;;;;;;9.05;3.30;;;10.50;89.00;;;;;;5019165;28;20384;-88
2021/03/31 00:57:04;;;;;;;10.32;4.22;;;10.10;89.30;;;;;;5018725;28;20028;-88
2021/03/31 00:59:30;;;;;;;9.07;3.65;;;9.90;90.20;;;;;;5018608;28;20032;-88
2021/03/31 01:01:56;;;;;;;5.00;2.80;;;10.00;90.30;;;;;;5018817;28;20105;-89
2021/03/31 01:04:21;;;;;;;8.27;3.13;;;10.10;90.30;;;;;;5018766;28;20548;-88
2021/03/31 01:06:47;;;;;;;9.15;3.15;;;10.20;90.00;;;;;;5018710;28;20083;-89
2021/03/31 01:09:13;;;;;;;6.45;3.08;;;10.20;90.20;;;;;;5018798;28;20026;-88
2021/03/31 01:12:04;;;;;;;7.85;3.50;;;10.40;89.70;;;;;;5020544;28;20053;-89
2021/03/31 01:15:00;;;;;;;13.07;3.35;;;10.20;90.20;;;;;;5039589;28;20492;-87
2021/03/31 01:17:40;;;;;;;5.93;3.60;;;10.10;90.20;;;;;;5018781;28;20043;-88
2021/03/31 01:20:34;;;;;;;8.85;3.28;;;9.90;90.50;;;;;;5036629;28;20028;-88
2021/03/31 01:23:09;;;;;;;6.40;3.35;;;10.10;90.60;;;;;;5018296;28;20083;-88
2021/03/31 01:25:46;;;;;;;9.20;3.78;;;10.10;90.50;;;;;;5018129;28;20512;-88
2021/03/31 01:28:40;;;;;;;11.60;3.50;;;9.90;90.70;;;;;;5017298;28;20362;-87
2021/03/31 01:31:17;;;;;;;11.05;3.92;;;10.00;90.80;;;;;;5018273;28;20504;-88
2021/03/31 01:33:59;;;;;;;8.80;3.45;;;10.10;90.50;;;;;;5018208;28;20030;-88
2021/03/31 01:36:29;;;;;;;7.30;3.85;;;10.30;90.60;;;;;;5018140;28;20029;-89
2021/03/31 01:39:00;;;;;;;6.60;3.70;;;10.20;90.20;;;;;;5018185;28;20080;-88
2021/03/31 01:41:27;;;;;;;11.70;4.20;;;10.00;90.50;;;;;;5017945;28;20060;-87
2021/03/31 01:43:55;;;;;;;8.82;3.60;;;9.80;90.40;;;;;;5017878;28;20499;-87
2021/03/31 01:46:32;;;;;;;9.43;3.63;;;9.80;91.10;;;;;;5018035;28;20029;-88
2021/03/31 01:49:01;;;;;;;9.75;3.63;;;9.80;91.00;;;;;;5017942;28;20064;-88
2021/03/31 01:51:29;;;;;;;9.95;3.65;;;9.70;91.30;;;;;;5017636;28;20555;-88
2021/03/31 01:53:56;;;;;;;8.63;3.65;;;9.70;91.20;;;;;;5017795;28;20029;-88
2021/03/31 01:56:26;;;;;;;7.70;3.42;;;9.90;91.10;;;;;;5035347;28;20029;-88
2021/03/31 01:58:53;;;;;;;5.70;3.65;;;9.80;91.40;;;;;;5017693;28;20064;-88
2021/03/31 02:01:20;;;;;;;12.70;3.58;;;9.60;91.50;;;;;;5035395;28;20026;-87
2021/03/31 02:03:47;;;;;;;9.43;3.40;;;9.50;91.60;;;;;;5017511;28;20064;-87
2021/03/31 02:06:14;;;;;;;10.10;3.55;;;9.60;91.60;;;;;;5017410;28;20029;-88
2021/03/31 02:08:41;;;;;;;9.35;3.50;;;9.70;91.70;;;;;;5035212;28;20432;-88
2021/03/31 02:11:07;;;;;;;10.02;3.53;;;9.90;91.60;;;;;;5017497;28;20112;-89
2021/03/31 02:13:33;;;;;;;9.00;3.58;;;9.60;91.70;;;;;;5035193;28;20488;-87
2021/03/31 02:16:01;;;;;;;5.40;3.40;;;9.60;91.90;;;;;;5017134;28;20052;-88
2021/03/31 02:18:31;;;;;;;5.68;3.13;;;9.80;91.70;;;;;;5017220;28;20108;-87
2021/03/31 02:20:58;;;;;;;10.02;3.58;;;9.60;91.60;;;;;;5017779;28;20094;-87
2021/03/31 02:23:27;;;;;;;6.78;3.20;;;9.50;91.90;;;;;;5017132;28;20021;-88
2021/03/31 02:25:53;;;;;;;9.23;3.30;;;9.60;92.10;;;;;;5016919;28;20052;-88
2021/03/31 02:28:19;;;;;;;6.15;3.20;;;9.30;92.30;;;;;;5017192;28;20036;-88
2021/03/31 02:30:45;;;;;;;7.68;3.42;;;9.30;92.60;;;;;;5017146;28;20029;-88
2021/03/31 02:33:12;;;;;;;7.50;3.58;;;9.40;92.50;;;;;;5034800;28;20124;-88
2021/03/31 02:35:41;;;;;;;5.68;3.03;;;9.60;92.20;;;;;;5017112;28;20029;-87
2021/03/31 02:38:12;;;;;;;7.85;3.30;;;9.70;92.00;;;;;;5034581;28;20025;-89
2021/03/31 02:40:43;;;;;;;4.43;2.95;;;9.70;91.70;;;;;;5016879;28;20116;-88
2021/03/31 02:43:12;;;;;;;6.10;3.17;;;9.60;92.10;;;;;;5034607;28;20022;-87
2021/03/31 02:45:38;;;;;;;7.38;3.00;;;9.50;92.40;;;;;;5016409;28;20021;-88
2021/03/31 02:48:06;;;;;;;6.05;3.05;;;9.50;92.40;;;;;;5016659;28;20076;-88
2021/03/31 02:50:33;;;;;;;9.43;3.55;;;9.50;92.10;;;;;;5016704;28;20034;-88
2021/03/31 02:52:59;;;;;;;4.45;2.92;;;9.50;92.40;;;;;;5016669;28;20465;-87
2021/03/31 02:55:26;;;;;;;8.88;3.30;;;9.40;92.30;;;;;;5016518;28;20079;-88
2021/03/31 02:57:53;;;;;;;6.13;3.08;;;9.40;92.60;;;;;;5034494;28;20101;-88
2021/03/31 03:00:21;;;;;;;6.93;3.08;;;9.20;92.80;;;;;;5016431;28;20021;-88
2021/03/31 03:02:47;;;;;;;6.75;3.63;;;9.20;92.70;;;;;;5034138;28;20022;-87
2021/03/31 03:05:16;;;;;;;10.05;3.30;;;9.20;93.00;;;;;;5016496;28;20072;-87
2021/03/31 03:07:42;;;;;;;5.07;3.03;;;9.20;93.10;;;;;;5034113;28;20021;-88
2021/03/31 03:10:10;;;;;;;6.88;3.58;;;9.20;93.20;;;;;;5016217;28;20508;-87
2021/03/31 03:12:51;;;;;;;8.23;3.17;;;9.30;92.70;;;;;;5016300;28;20030;-88
2021/03/31 03:15:20;;;;;;;8.50;3.22;;;9.20;93.10;;;;;;5016556;28;20026;-88
2021/03/31 03:17:49;;;;;;;8.30;3.40;;;9.40;93.00;;;;;;5016219;28;20042;-88
2021/03/31 03:20:15;;;;;;;6.72;3.70;;;9.40;92.60;;;;;;5016194;28;20025;-88
2021/03/31 03:22:43;;;;;;;6.60;3.22;;;9.10;92.90;;;;;;5016130;28;20033;-88
2021/03/31 03:25:11;;;;;;;5.43;3.00;;;8.90;93.50;;;;;;5015921;28;20050;-88
2021/03/31 03:27:42;;;;;;;9.93;3.30;;;9.10;93.50;;;;;;5033862;28;20026;-88
2021/03/31 03:30:11;;;;;;;5.90;3.30;;;9.20;93.40;;;;;;5016204;28;20476;-88
2021/03/31 03:32:40;;;;;;;9.40;3.17;;;9.30;93.10;;;;;;5016155;28;20025;-88
2021/03/31 03:35:13;;;;;;;7.55;3.28;;;9.40;93.30;;;;;;5018861;28;20048;-87
2021/03/31 03:37:39;;;;;;;5.65;3.28;;;9.40;93.20;;;;;;5037816;28;20025;-89
2021/03/31 03:40:06;;;;;;;5.30;3.00;;;9.50;92.90;;;;;;5017065;28;20071;-88
2021/03/31 03:42:32;;;;;;;8.45;3.63;;;9.40;92.90;;;;;;5016154;28;20033;-88
2021/03/31 03:45:03;;;;;;;4.55;3.33;;;9.40;93.00;;;;;;5015954;28;20029;-88
2021/03/31 03:47:30;;;;;;;6.75;2.97;;;9.40;93.20;;;;;;5015920;28;20176;-87
2021/03/31 03:49:55;;;;;;;8.40;3.30;;;9.40;93.30;;;;;;5015432;28;20037;-88
2021/03/31 03:52:23;;;;;;;8.23;3.42;;;9.40;93.00;;;;;;5015833;28;20029;-88
2021/03/31 03:54:53;;;;;;;8.48;3.90;;;9.30;93.10;;;;;;5015776;28;20034;-88
2021/03/31 03:57:25;;;;;;;8.30;3.63;;;9.30;93.10;;;;;;5015745;28;20026;-87
2021/03/31 03:59:51;;;;;;;8.55;3.38;;;9.10;93.30;;;;;;5016038;28;20029;-88
2021/03/31 04:02:17;;;;;;;5.05;3.00;;;8.90;93.70;;;;;;5015724;28;20025;-87
2021/03/31 04:04:42;;;;;;;7.13;3.33;;;8.70;94.50;;;;;;5015743;28;20079;-87
2021/03/31 04:07:08;;;;;;;10.40;3.25;;;9.00;94.20;;;;;;5015762;28;20476;-88
2021/03/31 04:09:35;;;;;;;7.93;3.70;;;8.90;94.30;;;;;;5015757;28;20136;-88
2021/03/31 04:12:01;;;;;;;4.22;3.10;;;8.80;93.90;;;;;;5015522;28;20472;-88
2021/03/31 04:14:27;;;;;;;5.43;3.00;;;8.60;94.90;;;;;;5015837;28;20026;-88
2021/03/31 04:16:55;;;;;;;5.95;3.42;;;8.90;94.90;;;;;;5015467;28;20034;-88
2021/03/31 04:19:23;;;;;;;6.65;3.30;;;9.10;94.40;;;;;;5015827;28;20084;-88
2021/03/31 04:21:49;;;;;;;8.10;3.33;;;9.10;94.20;;;;;;5015533;28;20030;-88
2021/03/31 04:24:15;;;;;;;13.35;3.45;;;9.20;93.90;;;;;;5015638;28;20018;-88
2021/03/31 04:26:41;;;;;;;5.68;3.20;;;9.20;93.90;;;;;;5015457;28;20049;-89
2021/03/31 04:29:09;;;;;;;6.88;3.17;;;9.00;94.40;;;;;;5015532;28;20538;-89
2021/03/31 04:31:38;;;;;;;6.30;3.30;;;9.00;94.50;;;;;;5015494;28;20021;-88
2021/03/31 04:34:06;;;;;;;8.73;3.15;;;8.80;94.10;;;;;;5015818;28;20030;-88
2021/03/31 04:36:32;;;;;;;8.38;3.08;;;8.90;94.50;;;;;;5015242;28;20041;-88
2021/03/31 04:38:58;;;;;;;8.77;3.67;;;8.90;94.50;;;;;;5015522;28;20480;-88
2021/03/31 04:41:24;;;;;;;5.60;3.05;;;8.80;94.60;;;;;;5015440;28;20025;-88
2021/03/31 04:43:50;;;;;;;7.13;3.08;;;8.90;95.00;;;;;;4998952;28;20036;-88
2021/03/31 04:46:16;;;;;;;5.95;3.40;;;8.70;94.60;;;;;;5015467;28;20022;-88
2021/03/31 04:48:42;;;;;;;7.35;3.50;;;8.50;95.40;;;;;;5015189;28;20358;-88
2021/03/31 04:51:08;;;;;;;9.73;3.22;;;8.80;95.00;;;;;;5015312;28;20030;-88
2021/03/31 04:53:34;;;;;;;9.20;3.33;;;8.90;94.80;;;;;;5015268;28;20029;-87
2021/03/31 04:56:00;;;;;;;7.25;3.50;;;8.80;94.90;;;;;;5015154;28;20029;-87
2021/03/31 04:58:26;;;;;;;7.35;3.45;;;8.80;95.10;;;;;;5015145;28;20116;-88
2021/03/31 05:00:51;;;;;;;5.20;2.95;;;9.00;94.70;;;;;;5015280;28;20029;-89
2021/03/31 05:03:17;;;;;;;6.32;3.47;;;9.00;94.80;;;;;;5018005;28;20032;-88
2021/03/31 05:05:43;;;;;;;4.57;3.10;;;8.90;94.60;;;;;;5018719;28;20382;-88
2021/03/31 05:08:09;;;;;;;7.10;3.03;;;9.00;94.80;;;;;;5018820;28;20495;-88
2021/03/31 05:10:36;;;;;;;5.93;3.53;;;9.10;94.90;;;;;;5018783;28;20432;-88
2021/03/31 05:13:02;;;;;;;4.65;3.00;;;9.20;94.30;;;;;;5018646;28;20021;-88
2021/03/31 05:15:28;;;;;;;6.53;2.90;;;9.10;94.60;;;;;;5018830;28;20550;-88
2021/03/31 05:17:54;;;;;;;5.13;3.33;;;8.90;95.00;;;;;;5018423;28;20049;-88
2021/03/31 05:20:19;;;;;;;8.27;3.30;;;8.70;95.20;;;;;;5018626;28;20377;-88
2021/03/31 05:22:45;;;;;;;9.07;3.15;;;8.70;95.20;;;;;;5018464;28;20071;-89
2021/03/31 05:25:12;;;;;;;12.00;3.60;;;8.40;95.90;;;;;;5018161;28;20383;-88
2021/03/31 05:27:38;;;;;;;5.00;2.80;;;8.60;96.00;;;;;;5036172;28;20051;-88
2021/03/31 05:30:09;;;;;;;6.68;3.25;;;8.70;95.80;;;;;;5018418;28;20022;-88
2021/03/31 05:32:35;;;;;;;7.35;3.10;;;8.80;95.70;;;;;;5018222;28;20060;-88
2021/03/31 05:35:00;;;;;;;10.73;3.30;;;8.80;95.30;;;;;;5018425;28;20036;-89
2021/03/31 05:37:27;;;;;;;4.93;3.28;;;8.70;95.80;;;;;;5018122;28;20029;-88
2021/03/31 05:39:53;;;;;;;7.32;3.00;;;8.80;95.80;;;;;;5017995;28;20021;-88
2021/03/31 05:42:19;;;;;;;13.70;3.70;;;8.80;95.70;;;;;;5017994;28;20028;-88
2021/03/31 05:44:45;;;;;;;10.73;3.53;;;8.70;95.50;;;;;;5017988;28;20112;-88
2021/03/31 05:47:35;;;;;;;9.07;3.20;;;8.60;96.30;;;;;;5018010;28;20477;-89
2021/03/31 05:50:03;;;;;;;8.80;3.28;;;8.80;96.00;;;;;;5018003;28;20022;-90
2021/03/31 05:52:28;;;;;;;32.25;12.02;;;9.00;95.80;;;;;;5018043;28;20048;-88
2021/03/31 05:54:54;;;;;;;16.02;6.38;;;8.80;95.70;;;;;;5018163;28;20021;-88
2021/03/31 05:57:21;;;;;;;9.38;4.00;;;8.90;95.90;;;;;;5035625;28;20029;-88
2021/03/31 05:59:47;;;;;;;11.77;3.70;;;9.00;95.60;;;;;;5029026;28;20061;-88
2021/03/31 06:02:15;;;;;;;8.23;4.00;;;9.10;95.60;;;;;;5049189;28;20018;-88
2021/03/31 06:04:41;;;;;;;10.05;4.00;;;9.10;95.50;;;;;;5021342;28;20420;-90
2021/03/31 06:07:08;;;;;;;10.93;4.28;;;9.20;95.50;;;;;;5019061;28;20036;-89
2021/03/31 06:09:33;;;;;;;13.70;4.05;;;9.20;95.40;;;;;;5018276;28;20030;-90
2021/03/31 06:12:02;;;;;;;7.13;3.80;;;9.20;95.60;;;;;;5018213;28;20025;-89
2021/03/31 06:14:40;;;;;;;7.68;4.20;;;9.20;95.50;;;;;;5017712;28;20120;-89
2021/03/31 06:17:11;;;;;;;7.03;4.10;;;9.10;95.90;;;;;;5017991;28;20022;-89
2021/03/31 06:19:38;;;;;;;7.03;4.20;;;9.20;95.80;;;;;;5017532;28;20053;-89
2021/03/31 06:22:22;;;;;;;11.23;3.97;;;9.10;95.90;;;;;;5017652;28;20033;-89
2021/03/31 06:25:11;;;;;;;8.57;3.83;;;9.00;96.20;;;;;;5017665;28;20044;-89
2021/03/31 06:27:37;;;;;;;9.65;3.50;;;9.10;96.30;;;;;;5033275;28;20327;-90
2021/03/31 06:30:04;;;;;;;9.20;3.80;;;9.20;96.20;;;;;;5020663;28;20025;-89
2021/03/31 06:32:48;;;;;;;9.25;3.80;;;9.30;96.10;;;;;;5031444;28;20081;-93
2021/03/31 09:13:34;;;;;;;13.40;6.65;;;19.10;70.60;;;;;;1075883;27;20335;-85
2021/03/31 09:16:06;;;;;;;13.63;6.80;;;19.30;68.50;;;;;;4881044;29;20107;-84
2021/03/31 09:18:32;;;;;;;12.00;5.13;;;19.60;66.30;;;;;;4865522;29;20040;-84
2021/03/31 09:20:58;;;;;;;15.75;6.95;;;19.70;65.00;;;;;;4882497;29;20033;-84
2021/03/31 09:23:25;;;;;;;9.13;5.35;;;19.90;64.40;;;;;;4865469;29;20021;-84
2021/03/31 09:26:00;;;;;;;11.30;6.50;;;20.10;63.80;;;;;;4882134;29;20032;-85
2021/03/31 09:28:26;;;;;;;12.27;7.32;;;20.30;62.00;;;;;;4865537;29;20493;-84
2021/03/31 09:30:55;;;;;;;14.88;6.97;;;20.40;61.90;;;;;;4865376;29;20037;-85
2021/03/31 09:33:30;;;;;;;13.35;7.03;;;20.50;60.80;;;;;;4865387;29;20039;-85
2021/03/31 09:36:12;;;;;;;11.93;6.85;;;20.50;60.10;;;;;;4865692;29;20083;-84
2021/03/31 09:38:38;;;;;;;11.63;6.75;;;20.60;59.80;;;;;;4882189;29;20473;-84
2021/03/31 09:41:05;;;;;;;16.55;7.00;;;20.80;59.80;;;;;;4866080;29;20025;-84
2021/03/31 09:43:35;;;;;;;13.93;7.07;;;21.00;59.30;;;;;;4865374;29;20032;-84
2021/03/31 09:46:03;;;;;;;14.20;6.50;;;21.00;58.60;;;;;;4865031;29;20036;-84
2021/03/31 09:48:29;;;;;;;25.00;6.47;;;21.20;58.60;;;;;;4864777;29;20496;-85
2021/03/31 09:50:56;;;;;;;11.70;6.60;;;21.30;56.20;;;;;;4864980;29;20033;-84
2021/03/31 09:53:25;;;;;;;9.82;6.40;;;21.30;56.40;;;;;;4864913;29;20036;-85
2021/03/31 09:55:52;;;;;;;12.32;5.80;;;21.50;55.80;;;;;;4864884;29;20033;-85
2021/03/31 09:58:24;;;;;;;10.63;5.63;;;21.50;55.50;;;;;;4864759;29;20040;-84
2021/03/31 10:00:51;;;;;;;14.68;5.68;;;21.60;56.00;;;;;;4864729;29;20032;-84
2021/03/31 10:03:18;;;;;;;18.42;6.07;;;21.90;53.60;;;;;;4864976;29;20160;-85
2021/03/31 10:05:44;;;;;;;11.73;6.40;;;22.10;53.80;;;;;;4864781;29;20025;-85
2021/03/31 10:08:12;;;;;;;14.85;5.47;;;21.90;53.10;;;;;;4864576;29;20393;-85
2021/03/31 10:10:50;;;;;;;13.63;5.68;;;21.80;52.00;;;;;;4864574;29;20029;-85
2021/03/31 10:13:17;;;;;;;11.25;5.63;;;22.20;54.00;;;;;;4864412;29;20029;-85
2021/03/31 10:15:59;;;;;;;12.80;5.53;;;22.50;54.30;;;;;;4864491;29;20029;-84
2021/03/31 10:18:27;;;;;;;17.40;5.63;;;22.80;53.50;;;;;;4864396;29;20044;-85
2021/03/31 10:20:57;;;;;;;10.10;5.47;;;23.10;51.10;;;;;;4864399;29;20021;-85
2021/03/31 10:23:36;;;;;;;15.40;5.10;;;23.30;48.60;;;;;;4864370;29;20031;-85
2021/03/31 10:26:33;;;;;;;10.70;4.63;;;23.40;48.40;;;;;;4864342;29;20397;-85
2021/03/31 10:29:06;;;;;;;10.20;5.22;;;23.40;47.30;;;;;;4856302;29;20112;-85
2021/03/31 10:31:39;;;;;;;13.65;4.70;;;23.60;46.40;;;;;;4864451;29;20389;-84
2021/03/31 10:34:06;;;;;;;9.85;5.28;;;23.80;46.20;;;;;;4864343;29;20390;-84
2021/03/31 10:39:49;;;;;;;8.98;4.50;;;24.00;46.30;;;;;;4881422;29;20025;-84
2021/03/31 10:48:15;;;;;;;13.88;5.60;;;24.80;44.90;;;;;;4831161;29;20373;-84
2021/03/31 10:53:52;;;;;;;9.23;5.97;;;24.80;45.40;;;;;;4849385;29;20037;-83
2021/03/31 10:56:18;;;;;;;10.63;4.72;;;25.00;44.10;;;;;;4863888;29;20481;-85
2021/03/31 10:58:44;;;;;;;13.80;5.07;;;25.30;45.40;;;;;;4863615;29;20033;-84
2021/03/31 11:01:10;;;;;;;7.30;4.57;;;25.60;45.10;;;;;;4863895;29;20125;-84
2021/03/31 11:03:36;;;;;;;15.35;5.05;;;25.90;45.10;;;;;;4863646;29;20446;-84
2021/03/31 11:06:04;;;;;;;11.23;5.50;;;25.40;45.10;;;;;;4880605;29;20060;-84
2021/03/31 11:08:29;;;;;;;13.80;5.75;;;25.40;45.10;;;;;;4863755;29;20577;-85
2021/03/31 11:10:55;;;;;;;9.48;6.00;;;25.60;45.00;;;;;;4880260;29;20108;-84
2021/03/31 11:13:21;;;;;;;17.70;6.35;;;25.90;44.20;;;;;;4863331;29;20057;-83
2021/03/31 11:15:47;;;;;;;10.57;6.55;;;26.40;43.30;;;;;;4863438;29;20033;-84
2021/03/31 11:18:26;;;;;;;8.68;5.47;;;26.00;42.90;;;;;;4863396;29;20033;-84
2021/03/31 11:21:06;;;;;;;9.43;4.68;;;26.70;43.60;;;;;;4863432;29;20088;-84
2021/03/31 11:26:15;;;;;;;10.63;5.53;;;26.90;42.40;;;;;;4880531;29;20462;-84
2021/03/31 11:29:01;;;;;;;11.68;5.43;;;26.70;40.50;;;;;;5111201;27;20362;-84
2021/03/31 11:31:27;;;;;;;12.30;5.28;;;26.60;41.60;;;;;;5072922;28;20028;-83
2021/03/31 11:33:53;;;;;;;12.02;5.60;;;27.20;42.10;;;;;;5072784;28;20410;-83
2021/03/31 11:36:19;;;;;;;12.90;6.30;;;27.10;41.40;;;;;;5072799;28;20464;-84
2021/03/31 11:38:44;;;;;;;12.73;5.80;;;27.00;41.20;;;;;;5073015;28;20058;-83
2021/03/31 11:41:10;;;;;;;13.63;5.55;;;27.30;41.10;;;;;;5073092;28;20024;-84
2021/03/31 11:43:36;;;;;;;12.85;5.10;;;27.60;41.30;;;;;;5090990;28;20024;-83
2021/03/31 11:46:02;;;;;;;14.73;5.65;;;27.90;40.60;;;;;;5072930;28;20433;-83
2021/03/31 11:48:28;;;;;;;12.48;5.43;;;28.10;39.40;;;;;;5072625;28;20070;-86
2021/03/31 11:50:54;;;;;;;9.50;5.90;;;28.50;39.30;;;;;;5090879;28;20020;-85
2021/03/31 11:53:20;;;;;;;13.18;6.10;;;28.40;39.50;;;;;;5072650;28;20028;-86
2021/03/31 11:55:46;;;;;;;14.23;5.50;;;28.40;38.90;;;;;;5090731;28;20051;-86
2021/03/31 11:58:11;;;;;;;8.90;5.38;;;28.90;39.10;;;;;;5072411;28;20024;-86
2021/03/31 12:00:37;;;;;;;16.48;5.53;;;28.40;39.00;;;;;;5090565;28;20063;-86
2021/03/31 12:03:04;;;;;;;9.85;5.00;;;28.80;38.90;;;;;;5072407;28;20074;-85
2021/03/31 12:05:30;;;;;;;8.85;3.83;;;28.90;37.30;;;;;;5090547;28;20099;-85
2021/03/31 12:07:56;;;;;;;9.65;4.78;;;29.00;38.70;;;;;;5090415;28;20020;-85
2021/03/31 12:10:21;;;;;;;13.43;4.88;;;29.00;38.10;;;;;;5072117;28;20542;-86
2021/03/31 12:12:47;;;;;;;13.30;5.13;;;29.50;37.60;;;;;;5072217;28;20067;-86
2021/03/31 12:15:14;;;;;;;12.40;5.00;;;29.90;36.90;;;;;;5090438;28;20104;-87
2021/03/31 12:17:40;;;;;;;10.55;4.10;;;29.70;36.80;;;;;;5053072;28;20027;-85
2021/03/31 12:20:12;;;;;;;7.85;4.25;;;29.40;36.80;;;;;;5052166;28;20025;-85
2021/03/31 12:22:39;;;;;;;9.52;5.55;;;29.00;37.00;;;;;;5052298;28;20074;-85
2021/03/31 12:25:06;;;;;;;11.45;4.88;;;29.00;36.60;;;;;;5051963;28;20031;-85
2021/03/31 12:27:34;;;;;;;8.68;4.63;;;28.70;37.20;;;;;;5056428;28;20132;-85
2021/03/31 12:30:03;;;;;;;7.47;4.60;;;28.80;36.70;;;;;;5070044;28;20044;-85
2021/03/31 12:32:29;;;;;;;12.30;5.00;;;29.10;36.90;;;;;;5068631;28;20017;-85
2021/03/31 12:34:54;;;;;;;10.10;4.78;;;29.30;36.90;;;;;;5068389;28;20025;-85
2021/03/31 12:37:22;;;;;;;9.88;4.32;;;29.30;37.40;;;;;;5069565;28;20055;-85
2021/03/31 12:39:48;;;;;;;6.18;4.78;;;29.40;37.90;;;;;;5057716;28;20036;-85
2021/03/31 12:42:13;;;;;;;9.25;4.35;;;29.70;36.50;;;;;;5056232;28;20025;-85
2021/03/31 12:44:39;;;;;;;11.07;4.30;;;29.10;36.90;;;;;;5054923;28;20476;-86
2021/03/31 12:47:05;;;;;;;8.32;4.03;;;29.70;36.90;;;;;;5054757;28;20021;-85
2021/03/31 12:49:31;;;;;;;9.27;5.30;;;29.60;37.60;;;;;;5054774;28;20021;-85
2021/03/31 12:52:02;;;;;;;13.13;4.97;;;29.80;37.60;;;;;;5054991;28;20519;-86
2021/03/31 12:56:57;;;;;;;13.68;6.10;;;29.80;36.60;;;;;;5056747;28;20029;-85
2021/03/31 12:59:23;;;;;;;15.75;6.70;;;29.90;36.70;;;;;;5054513;28;20120;-85
2021/03/31 13:01:48;;;;;;;10.82;6.47;;;29.40;37.30;;;;;;5054469;28;20029;-85
2021/03/31 13:04:15;;;;;;;8.98;5.95;;;29.40;37.30;;;;;;5054593;28;20029;-85
2021/03/31 13:06:41;;;;;;;13.13;6.30;;;29.40;37.10;;;;;;5054412;28;20025;-85
2021/03/31 13:09:07;;;;;;;12.20;7.40;;;29.50;38.30;;;;;;5054421;28;20036;-86
2021/03/31 13:11:34;;;;;;;13.63;6.85;;;29.90;37.60;;;;;;5054419;28;20022;-85
2021/03/31 13:14:16;;;;;;;14.70;7.93;;;30.30;37.80;;;;;;5054072;28;20033;-85
2021/03/31 13:16:46;;;;;;;15.02;7.13;;;30.40;37.00;;;;;;5054140;28;20021;-85
2021/03/31 13:22:05;;;;;;;14.77;7.00;;;30.70;36.60;;;;;;5056084;28;20032;-86
2021/03/31 13:27:28;;;;;;;14.55;6.47;;;30.60;36.40;;;;;;5049999;28;19967;-85
2021/03/31 13:32:44;;;;;;;14.20;8.00;;;30.80;36.70;;;;;;5036195;28;20064;-85
2021/03/31 13:35:23;;;;;;;14.40;7.45;;;30.80;36.10;;;;;;5035310;28;20029;-85
2021/03/31 13:40:18;;;;;;;17.92;8.30;;;29.90;36.00;;;;;;5035504;28;20037;-85
2021/03/31 13:42:44;;;;;;;18.90;9.25;;;30.00;37.70;;;;;;5017456;28;20124;-85
2021/03/31 13:45:10;;;;;;;18.00;8.63;;;30.50;37.90;;;;;;5035396;28;20515;-86
2021/03/31 13:48:20;;;;;;;17.20;8.98;;;31.20;37.70;;;;;;5017258;28;20029;-85
2021/03/31 13:50:27;;;;;;;12.05;8.82;;;31.00;37.70;;;;;;5028392;28;20033;-86
2021/03/31 13:52:55;;;;;;;19.90;9.02;;;31.10;37.60;;;;;;5017187;28;20026;-85
2021/03/31 13:55:24;;;;;;;17.90;8.80;;;31.40;36.30;;;;;;5035198;28;20025;-86
2021/03/31 13:57:51;;;;;;;15.13;8.27;;;30.80;36.60;;;;;;5017119;28;20025;-85
2021/03/31 14:00:22;;;;;;;16.23;8.07;;;31.00;37.10;;;;;;5017128;28;20029;-85
2021/03/31 14:02:48;;;;;;;13.70;7.85;;;31.40;36.50;;;;;;5034822;28;20109;-85
2021/03/31 14:05:14;;;;;;;12.88;6.95;;;31.10;36.80;;;;;;5017011;28;20029;-85
2021/03/31 14:07:40;;;;;;;16.40;8.07;;;31.00;36.80;;;;;;5034622;28;20096;-85
2021/03/31 14:10:08;;;;;;;14.18;7.45;;;30.80;37.70;;;;;;5034624;28;20457;-84
2021/03/31 14:12:34;;;;;;;17.60;8.02;;;30.90;36.70;;;;;;5016777;28;20470;-84
2021/03/31 14:15:00;;;;;;;15.80;7.75;;;30.60;37.20;;;;;;5016805;28;20428;-85
2021/03/31 14:17:26;;;;;;;16.40;7.43;;;30.90;37.20;;;;;;5016623;28;20036;-84
2021/03/31 14:19:59;;;;;;;20.88;9.05;;;30.80;36.50;;;;;;5016717;28;20025;-85
2021/03/31 14:22:26;;;;;;;16.30;7.03;;;30.50;36.10;;;;;;5016736;28;20113;-83
2021/03/31 14:24:52;;;;;;;13.52;7.85;;;30.70;36.30;;;;;;5016564;28;20092;-85
2021/03/31 14:27:20;;;;;;;18.48;7.70;;;30.40;36.30;;;;;;5024691;28;20531;-85
2021/03/31 14:29:46;;;;;;;12.73;7.35;;;30.50;36.50;;;;;;5052824;28;20025;-83
2021/03/31 14:32:13;;;;;;;11.82;7.88;;;30.30;36.30;;;;;;5052825;28;20021;-85
2021/03/31 14:34:40;;;;;;;15.10;6.60;;;29.90;36.10;;;;;;5052911;28;20071;-85
2021/03/31 14:37:06;;;;;;;19.00;7.10;;;30.10;36.70;;;;;;5054325;28;20052;-85
2021/03/31 14:39:31;;;;;;;13.55;7.25;;;30.10;36.70;;;;;;5052726;28;20025;-85
2021/03/31 14:41:57;;;;;;;14.40;7.25;;;30.10;36.80;;;;;;5052883;28;20447;-85
2021/03/31 14:44:23;;;;;;;12.60;6.78;;;30.20;36.80;;;;;;5052678;28;20029;-85
2021/03/31 14:46:48;;;;;;;14.02;7.90;;;30.10;37.00;;;;;;5054054;28;20040;-85
2021/03/31 14:49:15;;;;;;;14.32;7.38;;;29.60;36.70;;;;;;5054124;28;20024;-84
2021/03/31 14:57:17;;;;;;;13.63;6.88;;;28.80;38.30;;;;;;5054346;28;20163;-85
2021/03/31 14:59:44;;;;;;;10.45;6.47;;;29.00;38.10;;;;;;5052555;28;20025;-86
2021/03/31 15:02:11;;;;;;;10.68;4.97;;;28.80;38.00;;;;;;5053786;28;20028;-85
2021/03/31 15:04:38;;;;;;;10.32;6.00;;;28.60;38.90;;;;;;5052886;28;20033;-85
2021/03/31 15:07:04;;;;;;;19.08;7.45;;;28.20;40.00;;;;;;5052332;28;20108;-85
2021/03/31 15:09:29;;;;;;;13.40;6.18;;;27.80;40.10;;;;;;5052384;28;20056;-85
2021/03/31 15:11:59;;;;;;;12.23;5.65;;;27.10;41.10;;;;;;5052407;28;20393;-85
2021/03/31 15:14:27;;;;;;;14.48;5.85;;;26.50;42.40;;;;;;5053565;28;20095;-85
2021/03/31 15:16:53;;;;;;;12.45;6.38;;;26.00;42.70;;;;;;5052217;28;20021;-85
2021/03/31 15:24:26;;;;;;;9.40;5.43;;;25.10;43.50;;;;;;5053467;28;20067;-85
2021/03/31 15:26:52;;;;;;;9.30;5.53;;;25.00;43.80;;;;;;5051620;28;20021;-85
2021/03/31 15:29:17;;;;;;;13.82;5.80;;;24.80;43.90;;;;;;5016124;28;20036;-85
2021/03/31 15:31:44;;;;;;;11.73;5.60;;;24.60;44.70;;;;;;5015762;28;20025;-85
2021/03/31 15:34:10;;;;;;;13.45;5.07;;;24.50;45.00;;;;;;5015700;28;20431;-85
2021/03/31 15:36:36;;;;;;;9.77;4.28;;;24.40;45.60;;;;;;5015714;28;20018;-85
2021/03/31 15:39:03;;;;;;;11.10;4.95;;;24.40;46.80;;;;;;5015625;28;20030;-85
2021/03/31 15:41:29;;;;;;;10.70;4.82;;;24.30;46.30;;;;;;5015622;28;20033;-85
2021/03/31 15:43:55;;;;;;;13.65;5.60;;;24.20;46.70;;;;;;5016505;28;20026;-85
2021/03/31 15:46:21;;;;;;;7.85;4.72;;;24.20;46.10;;;;;;5015904;28;20108;-85
2021/03/31 15:48:50;;;;;;;14.55;5.68;;;24.20;46.10;;;;;;5015460;28;20495;-85
2021/03/31 15:51:16;;;;;;;11.30;5.40;;;24.00;45.40;;;;;;5015576;28;20083;-85
2021/03/31 15:53:42;;;;;;;7.95;3.78;;;23.90;46.20;;;;;;5015541;28;20432;-85
2021/03/31 15:56:07;;;;;;;10.65;4.28;;;23.80;46.40;;;;;;5015594;28;20022;-85
2021/03/31 15:58:33;;;;;;;15.05;4.35;;;23.80;46.80;;;;;;5015368;28;20080;-84
2021/03/31 16:00:59;;;;;;;12.80;4.00;;;23.80;46.90;;;;;;5016275;28;20033;-84
2021/03/31 16:03:30;;;;;;;10.50;3.30;;;23.80;46.80;;;;;;5015370;28;20477;-85
2021/03/31 16:05:57;;;;;;;7.97;3.70;;;23.70;47.60;;;;;;5015531;28;20079;-85
2021/03/31 16:08:22;;;;;;;16.13;4.07;;;23.60;48.10;;;;;;5015324;28;20032;-85